createdAt,value
2018-06-24T00:02:11.814Z,12.87
2018-06-24T00:04:40.279Z,7.70
2018-06-24T00:07:08.944Z,9.40
2018-06-24T00:09:37.455Z,12.73
2018-06-24T00:12:05.868Z,9.10
2018-06-24T00:14:34.354Z,6.93
2018-06-24T00:17:02.992Z,10.90
2018-06-24T00:19:31.471Z,11.20
2018-06-24T00:21:59.906Z,12.37
2018-06-24T00:24:28.370Z,9.03
2018-06-24T00:26:56.820Z,10.40
2018-06-24T00:29:25.284Z,10.87
2018-06-24T00:31:53.870Z,8.67
2018-06-24T00:34:22.294Z,9.53
2018-06-24T00:36:51.084Z,7.53
2018-06-24T00:39:19.564Z,6.07
2018-06-24T00:41:47.999Z,7.27
2018-06-24T00:44:16.403Z,6.57
2018-06-24T00:46:44.823Z,12.10
2018-06-24T00:49:13.233Z,9.30
2018-06-24T00:51:41.650Z,8.20
2018-06-24T00:54:10.270Z,8.50
2018-06-24T00:56:38.742Z,6.60
2018-06-24T00:59:07.242Z,10.30
2018-06-24T01:01:35.672Z,7.40
2018-06-24T01:04:04.151Z,7.37
2018-06-24T01:06:32.578Z,7.37
2018-06-24T01:09:01.035Z,8.40
2018-06-24T01:11:29.519Z,7.93
2018-06-24T01:13:58.016Z,11.03
2018-06-24T01:16:26.458Z,8.33
2018-06-24T01:18:55.389Z,7.97
2018-06-24T01:21:24.107Z,6.33
2018-06-24T01:23:52.948Z,7.73
2018-06-24T01:26:21.403Z,8.27
2018-06-24T01:28:49.854Z,6.10
2018-06-24T01:31:18.255Z,9.63
2018-06-24T01:33:46.765Z,6.63
2018-06-24T01:36:15.202Z,19.50
2018-06-24T01:38:43.661Z,11.00
2018-06-24T01:41:12.110Z,7.93
2018-06-24T01:43:40.551Z,9.00
2018-06-24T01:46:08.956Z,9.03
2018-06-24T01:48:37.436Z,8.47
2018-06-24T01:51:05.939Z,8.77
2018-06-24T01:53:34.394Z,9.27
2018-06-24T01:56:02.829Z,8.60
2018-06-24T01:58:31.281Z,9.63
2018-06-24T02:00:59.919Z,9.40
2018-06-24T02:03:28.458Z,11.07
2018-06-24T02:05:56.973Z,9.00
2018-06-24T02:08:25.403Z,9.40
2018-06-24T02:10:53.927Z,8.90
2018-06-24T02:13:22.406Z,13.33
2018-06-24T02:15:50.831Z,9.57
2018-06-24T02:18:19.385Z,11.00
2018-06-24T02:20:48.175Z,9.13
2018-06-24T02:23:16.643Z,13.83
2018-06-24T02:25:45.075Z,10.03
2018-06-24T02:28:13.510Z,7.37
2018-06-24T02:30:41.931Z,7.77
2018-06-24T02:33:10.349Z,8.90
2018-06-24T02:35:38.774Z,7.73
2018-06-24T02:38:07.218Z,10.83
2018-06-24T02:40:35.692Z,12.20
2018-06-24T02:43:04.148Z,11.30
2018-06-24T02:45:32.612Z,6.53
2018-06-24T02:48:01.052Z,9.03
2018-06-24T02:50:29.512Z,10.53
2018-06-24T02:52:57.952Z,8.80
2018-06-24T02:55:26.366Z,7.13
2018-06-24T02:57:54.785Z,11.60
2018-06-24T03:00:23.235Z,12.43
2018-06-24T03:02:51.655Z,9.00
2018-06-24T03:05:20.139Z,8.40
2018-06-24T03:07:48.577Z,8.00
2018-06-24T03:10:17.053Z,12.07
2018-06-24T03:12:45.488Z,9.13
2018-06-24T03:15:13.952Z,8.60
2018-06-24T03:17:42.382Z,5.97
2018-06-24T03:20:10.807Z,7.17
2018-06-24T03:22:39.272Z,8.27
2018-06-24T03:25:08.036Z,9.77
2018-06-24T03:27:36.466Z,7.83
2018-06-24T03:30:05.428Z,7.37
2018-06-24T03:32:33.831Z,7.83
2018-06-24T03:35:02.299Z,11.10
2018-06-24T03:37:30.744Z,8.50
2018-06-24T03:39:59.163Z,10.37
2018-06-24T03:42:27.619Z,19.13
2018-06-24T03:44:56.047Z,7.83
2018-06-24T03:47:24.490Z,8.67
2018-06-24T03:49:53.135Z,6.83
2018-06-24T03:52:21.592Z,11.13
2018-06-24T03:54:50.163Z,9.27
2018-06-24T03:57:18.639Z,7.60
2018-06-24T03:59:47.270Z,6.73
2018-06-24T04:02:15.676Z,8.70
2018-06-24T04:04:44.128Z,7.00
2018-06-24T04:07:12.745Z,8.83
2018-06-24T04:09:41.159Z,7.20
2018-06-24T04:12:09.624Z,7.30
2018-06-24T04:14:38.075Z,9.10
2018-06-24T04:17:06.522Z,10.60
2018-06-24T04:19:34.971Z,8.30
2018-06-24T04:22:03.466Z,8.30
2018-06-24T04:24:31.879Z,6.77
2018-06-24T04:27:00.291Z,9.33
2018-06-24T04:29:28.741Z,9.00
2018-06-24T04:31:57.160Z,8.50
2018-06-24T04:34:25.595Z,10.00
2018-06-24T04:36:54.050Z,12.23
2018-06-24T04:39:22.574Z,10.57
2018-06-24T04:41:51.018Z,11.60
2018-06-24T04:44:19.468Z,8.80
2018-06-24T04:46:48.579Z,9.13
2018-06-24T04:49:16.992Z,10.30
2018-06-24T04:51:45.433Z,10.10
2018-06-24T04:54:14.047Z,12.30
2018-06-24T04:56:42.467Z,9.73
2018-06-24T04:59:10.916Z,9.90
2018-06-24T05:01:39.357Z,14.13
2018-06-24T05:04:07.775Z,11.83
2018-06-24T05:06:36.297Z,12.03
2018-06-24T05:09:07.115Z,13.90
2018-06-24T05:11:35.601Z,12.60
2018-06-24T05:14:04.439Z,15.43
2018-06-24T05:16:32.979Z,14.10
2018-06-24T05:19:01.769Z,15.07
2018-06-24T05:21:30.280Z,12.40
2018-06-24T05:23:58.718Z,16.47
2018-06-24T05:26:27.163Z,11.50
2018-06-24T05:28:55.587Z,12.30
2018-06-24T05:31:24.107Z,13.07
2018-06-24T05:33:52.547Z,14.63
2018-06-24T05:36:21.006Z,16.43
2018-06-24T05:38:49.502Z,10.63
2018-06-24T05:41:18.048Z,12.23
2018-06-24T05:43:46.582Z,11.40
2018-06-24T05:46:15.354Z,13.93
2018-06-24T05:48:43.817Z,11.43
2018-06-24T05:51:12.383Z,12.17
2018-06-24T05:53:40.825Z,14.93
2018-06-24T05:56:09.305Z,10.30
2018-06-24T05:58:37.770Z,16.00
2018-06-24T06:01:06.297Z,21.73
2018-06-24T06:03:34.792Z,14.70
2018-06-24T06:06:03.341Z,14.70
2018-06-24T06:08:31.776Z,13.40
2018-06-24T06:11:00.202Z,15.70
2018-06-24T06:13:28.664Z,19.47
2018-06-24T06:15:57.117Z,12.80
2018-06-24T06:18:25.558Z,14.60
2018-06-24T06:20:54.339Z,16.60
2018-06-24T06:23:22.764Z,19.23
2018-06-24T06:25:51.213Z,20.33
2018-06-24T06:28:19.613Z,16.47
2018-06-24T06:30:48.258Z,15.17
2018-06-24T06:33:16.685Z,17.33
2018-06-24T06:35:45.103Z,17.73
2018-06-24T06:38:13.749Z,13.60
2018-06-24T06:40:42.169Z,12.63
2018-06-24T06:43:10.628Z,15.50
2018-06-24T06:45:39.378Z,20.73
2018-06-24T06:48:07.729Z,15.47
2018-06-24T06:50:36.235Z,22.67
2018-06-24T06:53:04.734Z,14.90
2018-06-24T06:55:33.555Z,16.90
2018-06-24T06:58:01.967Z,21.97
2018-06-24T07:00:30.410Z,18.63
2018-06-24T07:02:58.890Z,20.93
2018-06-24T07:05:27.463Z,24.57
2018-06-24T07:07:57.991Z,16.43
2018-06-24T07:10:26.461Z,18.63
2018-06-24T07:12:54.878Z,20.87
2018-06-24T07:15:23.363Z,17.33
2018-06-24T07:17:51.807Z,19.17
2018-06-24T07:20:20.643Z,20.23
2018-06-24T07:22:49.173Z,16.87
2018-06-24T07:25:17.656Z,21.50
2018-06-24T07:27:46.209Z,20.93
2018-06-24T07:30:15.198Z,16.30
2018-06-24T07:32:43.662Z,27.90
2018-06-24T07:35:12.157Z,16.17
2018-06-24T07:37:40.645Z,23.93
2018-06-24T07:40:09.070Z,19.43
2018-06-24T07:42:37.579Z,17.90
2018-06-24T07:45:06.450Z,21.67
2018-06-24T07:47:34.900Z,19.27
2018-06-24T07:50:03.395Z,19.80
2018-06-24T07:52:32.207Z,19.80
2018-06-24T07:55:00.618Z,22.43
2018-06-24T07:57:29.112Z,18.73
2018-06-24T07:59:57.762Z,18.17
2018-06-24T08:02:26.239Z,23.83
2018-06-24T08:04:54.738Z,24.17
2018-06-24T08:07:23.250Z,23.10
2018-06-24T08:09:51.698Z,21.70
2018-06-24T08:12:20.133Z,22.87
2018-06-24T08:14:48.717Z,28.37
2018-06-24T08:17:17.146Z,23.87
2018-06-24T08:19:45.589Z,21.63
2018-06-24T08:22:14.065Z,21.53
2018-06-24T08:24:42.471Z,22.77
2018-06-24T08:27:10.921Z,23.60
2018-06-24T08:29:39.401Z,23.30
2018-06-24T08:32:07.925Z,21.63
2018-06-24T08:34:36.355Z,25.87
2018-06-24T08:37:04.790Z,23.00
2018-06-24T08:39:33.305Z,25.23
2018-06-24T08:42:02.161Z,24.97
2018-06-24T08:44:30.619Z,25.07
2018-06-24T08:46:59.158Z,24.10
2018-06-24T08:49:27.623Z,32.57
2018-06-24T08:51:56.058Z,29.47
2018-06-24T08:54:24.521Z,29.67
2018-06-24T08:56:53.512Z,27.47
2018-06-24T08:59:21.948Z,31.57
2018-06-24T09:01:50.386Z,24.70
2018-06-24T09:04:18.840Z,34.73
2018-06-24T09:06:47.266Z,25.37
2018-06-24T09:09:15.735Z,31.50
2018-06-24T09:11:44.410Z,23.77
2018-06-24T09:14:12.837Z,25.23
2018-06-24T09:16:41.290Z,25.67
2018-06-24T09:19:09.715Z,21.33
2018-06-24T09:21:38.332Z,25.30
2018-06-24T09:24:06.777Z,28.30
2018-06-24T09:26:35.231Z,30.20
2018-06-24T09:29:04.052Z,27.77
2018-06-24T09:31:32.512Z,29.10
2018-06-24T09:34:00.982Z,20.47
2018-06-24T09:36:29.462Z,22.20
2018-06-24T09:38:58.240Z,25.10
2018-06-24T09:41:26.670Z,19.63
2018-06-24T09:43:55.090Z,28.50
2018-06-24T09:46:23.574Z,26.60
2018-06-24T09:48:52.009Z,24.20
2018-06-24T09:51:20.439Z,20.37
2018-06-24T09:53:48.919Z,20.70
2018-06-24T09:56:17.448Z,20.40
2018-06-24T09:58:45.926Z,14.80
2018-06-24T10:01:14.362Z,19.30
2018-06-24T10:03:42.841Z,17.80
2018-06-24T10:06:11.331Z,18.20
2018-06-24T10:08:39.813Z,19.03
2018-06-24T10:11:08.413Z,21.07
2018-06-24T10:13:37.045Z,19.20
2018-06-24T10:16:05.546Z,16.20
2018-06-24T10:18:34.035Z,17.37
2018-06-24T10:21:02.660Z,17.17
2018-06-24T10:23:31.143Z,16.53
2018-06-24T10:25:59.832Z,16.07
2018-06-24T10:28:28.493Z,15.53
2018-06-24T10:30:56.982Z,19.27
2018-06-24T10:33:25.436Z,15.37
2018-06-24T10:35:53.948Z,17.37
2018-06-24T10:38:22.621Z,15.23
2018-06-24T10:40:51.056Z,19.90
2018-06-24T10:43:19.536Z,16.57
2018-06-24T10:45:47.985Z,16.60
2018-06-24T10:48:16.460Z,17.77
2018-06-24T10:50:44.898Z,14.87
2018-06-24T10:53:13.675Z,15.80
2018-06-24T10:55:42.123Z,16.87
2018-06-24T10:58:10.952Z,15.23
2018-06-24T11:00:39.478Z,13.87
2018-06-24T11:03:08.049Z,17.17
2018-06-24T11:05:36.495Z,15.20
2018-06-24T11:08:05.098Z,17.30
2018-06-24T11:10:33.545Z,18.70
2018-06-24T11:13:02.025Z,14.47
2018-06-24T11:15:30.520Z,16.53
2018-06-24T11:17:58.994Z,17.43
2018-06-24T11:20:27.539Z,12.43
2018-06-24T11:22:55.953Z,12.27
2018-06-24T11:25:24.423Z,10.77
2018-06-24T11:27:52.868Z,10.83
2018-06-24T11:30:21.311Z,13.20
2018-06-24T11:32:49.787Z,10.83
2018-06-24T11:35:18.226Z,11.97
2018-06-24T11:37:46.966Z,16.73
2018-06-24T11:40:15.422Z,17.17
2018-06-24T11:42:43.850Z,13.43
2018-06-24T11:45:12.274Z,12.80
2018-06-24T11:47:40.725Z,11.90
2018-06-24T11:50:09.221Z,10.17
2018-06-24T11:52:37.649Z,8.47
2018-06-24T11:55:06.133Z,8.40
2018-06-24T11:57:34.563Z,13.37
2018-06-24T12:00:03.103Z,12.07
2018-06-24T12:02:31.655Z,10.73
2018-06-24T12:05:00.384Z,10.13
2018-06-24T12:07:28.831Z,13.10
2018-06-24T12:09:57.307Z,13.80
2018-06-24T12:12:25.732Z,8.70
2018-06-24T12:14:54.194Z,11.43
2018-06-24T12:17:27.725Z,8.17
2018-06-24T12:19:51.679Z,5.87
2018-06-24T12:22:20.169Z,9.23
2018-06-24T12:24:48.605Z,8.23
2018-06-24T12:27:17.068Z,11.00
2018-06-24T12:29:45.465Z,7.43
2018-06-24T12:32:13.912Z,6.83
2018-06-24T12:34:42.372Z,11.13
2018-06-24T12:37:10.832Z,9.50
2018-06-24T12:39:39.295Z,5.80
2018-06-24T12:42:07.887Z,9.20
2018-06-24T12:44:36.350Z,5.90
2018-06-24T12:47:05.160Z,7.10
2018-06-24T12:49:33.595Z,10.43
2018-06-24T12:52:02.061Z,5.67
2018-06-24T12:54:30.498Z,7.47
2018-06-24T12:56:58.928Z,7.77
2018-06-24T12:59:27.745Z,9.93
2018-06-24T13:01:56.143Z,5.97
2018-06-24T13:04:24.626Z,8.23
2018-06-24T13:06:53.049Z,4.30
2018-06-24T13:09:21.476Z,5.43
2018-06-24T13:11:49.949Z,7.43
2018-06-24T13:14:18.417Z,5.20
2018-06-24T13:16:47.049Z,6.70
2018-06-24T13:19:15.485Z,6.40
2018-06-24T13:21:43.952Z,4.57
2018-06-24T13:24:12.443Z,4.90
2018-06-24T13:26:41.283Z,5.93
2018-06-24T13:29:09.941Z,6.60
2018-06-24T13:31:38.375Z,3.50
2018-06-24T13:34:06.840Z,4.50
2018-06-24T13:36:35.263Z,4.90
2018-06-24T13:39:04.211Z,4.03
2018-06-24T13:41:32.689Z,4.87
2018-06-24T13:44:01.110Z,7.10
2018-06-24T13:46:29.555Z,3.33
2018-06-24T13:48:57.989Z,5.10
2018-06-24T13:51:26.529Z,3.10
2018-06-24T13:53:54.964Z,5.27
2018-06-24T13:56:23.474Z,4.27
2018-06-24T13:58:51.916Z,4.47
2018-06-24T14:01:20.733Z,3.27
2018-06-24T14:03:49.216Z,4.67
2018-06-24T14:06:17.632Z,4.37
2018-06-24T14:08:46.073Z,3.40
2018-06-24T14:11:14.582Z,9.73
2018-06-24T14:13:43.025Z,3.90
2018-06-24T14:16:11.475Z,2.50
2018-06-24T14:18:39.914Z,6.40
2018-06-24T14:21:08.376Z,4.47
2018-06-24T14:23:36.874Z,2.57
2018-06-24T14:26:05.363Z,4.57
2018-06-24T14:28:33.798Z,2.97
2018-06-24T14:31:02.307Z,5.43
2018-06-24T14:33:30.733Z,3.27
2018-06-24T14:35:59.197Z,3.00
2018-06-24T14:38:27.630Z,6.17
2018-06-24T14:40:56.083Z,4.40
2018-06-24T14:43:24.494Z,2.60
2018-06-24T14:45:52.978Z,3.10
2018-06-24T14:48:21.428Z,4.37
2018-06-24T14:50:49.887Z,3.37
2018-06-24T14:53:18.741Z,6.07
2018-06-24T14:55:47.207Z,3.50
2018-06-24T14:58:15.656Z,3.93
2018-06-24T15:00:44.198Z,3.63
2018-06-24T15:03:12.645Z,3.90
2018-06-24T15:05:41.079Z,3.20
2018-06-24T15:08:09.544Z,3.50
2018-06-24T15:10:37.966Z,5.73
2018-06-24T15:13:06.383Z,3.80
2018-06-24T15:15:34.878Z,3.40
2018-06-24T15:18:03.349Z,5.70
2018-06-24T15:20:32.781Z,5.60
2018-06-24T15:23:01.299Z,5.30
2018-06-24T15:25:33.506Z,4.07
2018-06-24T15:28:01.987Z,6.60
2018-06-24T15:30:30.621Z,6.40
2018-06-24T15:32:59.080Z,4.70
2018-06-24T15:35:27.540Z,4.30
2018-06-24T15:37:56.179Z,3.60
2018-06-24T15:40:24.600Z,3.50
2018-06-24T15:42:53.059Z,4.40
2018-06-24T15:45:21.480Z,3.70
2018-06-24T15:47:49.933Z,4.27
2018-06-24T15:50:18.559Z,5.57
2018-06-24T15:52:47.083Z,4.97
2018-06-24T15:55:15.563Z,4.63
2018-06-24T15:57:44.020Z,2.27
2018-06-24T16:00:12.477Z,3.60
2018-06-24T16:02:40.926Z,4.17
2018-06-24T16:05:09.797Z,4.57
2018-06-24T16:07:38.431Z,4.60
2018-06-24T16:10:06.961Z,6.90
2018-06-24T16:12:35.419Z,4.00
2018-06-24T16:15:03.940Z,2.87
2018-06-24T16:17:32.398Z,4.10
2018-06-24T16:20:00.893Z,5.40
2018-06-24T16:22:29.374Z,4.30
2018-06-24T16:24:58.189Z,3.20
2018-06-24T16:27:26.714Z,2.73
2018-06-24T16:29:55.153Z,2.73
2018-06-24T16:32:23.625Z,2.20
2018-06-24T16:34:52.094Z,4.20
2018-06-24T16:37:20.571Z,2.90
2018-06-24T16:39:49.022Z,4.03
2018-06-24T16:42:17.571Z,4.83
2018-06-24T16:44:46.210Z,5.30
2018-06-24T16:47:14.676Z,3.60
2018-06-24T16:49:43.505Z,4.30
2018-06-24T16:52:12.112Z,3.80
2018-06-24T16:54:40.578Z,4.97
2018-06-24T16:57:09.084Z,2.50
2018-06-24T16:59:37.533Z,2.87
2018-06-24T17:02:06.541Z,2.20
2018-06-24T17:04:34.988Z,2.77
2018-06-24T17:07:04.547Z,3.47
2018-06-24T17:09:33.030Z,2.73
2018-06-24T17:12:01.606Z,2.47
2018-06-24T17:14:30.113Z,2.93
2018-06-24T17:16:58.591Z,4.30
2018-06-24T17:19:27.207Z,2.43
2018-06-24T17:21:55.640Z,3.30
2018-06-24T17:24:24.090Z,2.90
2018-06-24T17:26:52.699Z,5.93
2018-06-24T17:29:21.179Z,4.33
2018-06-24T17:31:49.633Z,3.83
2018-06-24T17:34:18.112Z,2.90
2018-06-24T17:36:46.573Z,2.30
2018-06-24T17:39:15.942Z,3.43
2018-06-24T17:41:45.878Z,2.50
2018-06-24T17:44:14.758Z,3.57
2018-06-24T17:46:43.192Z,2.23
2018-06-24T17:49:11.792Z,4.53
2018-06-24T17:51:40.227Z,3.97
2018-06-24T17:54:08.722Z,3.20
2018-06-24T17:56:37.132Z,4.93
2018-06-24T17:59:05.591Z,5.13
2018-06-24T18:01:34.026Z,2.33
2018-06-24T18:04:02.466Z,3.50
2018-06-24T18:06:30.910Z,2.83
2018-06-24T18:08:59.413Z,3.93
2018-06-24T18:11:27.854Z,3.27
2018-06-24T18:13:56.484Z,2.77
2018-06-24T18:16:24.955Z,3.10
2018-06-24T18:18:53.503Z,3.93
2018-06-24T18:21:22.065Z,4.47
2018-06-24T18:23:50.512Z,2.50
2018-06-24T18:26:19.003Z,5.43
2018-06-24T18:28:47.443Z,3.77
2018-06-24T18:31:16.277Z,3.10
2018-06-24T18:33:44.682Z,4.60
2018-06-24T18:36:13.167Z,3.40
2018-06-24T18:38:41.617Z,3.27
2018-06-24T18:41:10.031Z,3.00
2018-06-24T18:43:38.511Z,3.03
2018-06-24T18:46:07.010Z,4.90
2018-06-24T18:48:35.485Z,4.10
2018-06-24T18:51:04.010Z,4.00
2018-06-24T18:53:32.700Z,2.50
2018-06-24T18:56:01.195Z,3.00
2018-06-24T18:58:29.619Z,2.97
2018-06-24T19:00:59.657Z,3.70
2018-06-24T19:03:28.194Z,6.70
2018-06-24T19:05:56.663Z,4.83
2018-06-24T19:08:25.098Z,5.73
2018-06-24T19:10:53.878Z,5.30
2018-06-24T19:13:22.339Z,4.90
2018-06-24T19:15:50.804Z,3.37
2018-06-24T19:18:19.347Z,3.47
2018-06-24T19:20:47.826Z,3.17
2018-06-24T19:23:16.447Z,3.60
2018-06-24T19:25:45.056Z,3.23
2018-06-24T19:28:13.485Z,5.07
2018-06-24T19:30:42.160Z,3.47
2018-06-24T19:33:10.610Z,3.10
2018-06-24T19:35:39.150Z,3.97
2018-06-24T19:38:07.654Z,4.00
2018-06-24T19:40:36.146Z,6.13
2018-06-24T19:43:05.210Z,3.00
2018-06-24T19:45:33.646Z,6.10
2018-06-24T19:48:02.140Z,4.20
2018-06-24T19:50:30.674Z,4.03
2018-06-24T19:52:59.202Z,3.20
2018-06-24T19:55:27.681Z,3.60
2018-06-24T19:57:56.163Z,4.40
2018-06-24T20:00:24.606Z,3.60
2018-06-24T20:02:53.147Z,3.20
2018-06-24T20:05:21.612Z,4.33
2018-06-24T20:07:51.778Z,5.13
2018-06-24T20:10:20.222Z,3.90
2018-06-24T20:12:48.705Z,4.00
2018-06-24T20:15:17.368Z,4.97
2018-06-24T20:17:45.801Z,3.73
2018-06-24T20:20:14.550Z,4.53
2018-06-24T20:22:43.040Z,4.37
2018-06-24T20:25:11.509Z,5.00
2018-06-24T20:27:39.938Z,6.43
2018-06-24T20:30:08.584Z,6.70
2018-06-24T20:32:37.033Z,6.33
2018-06-24T20:35:05.902Z,10.70
2018-06-24T20:37:34.427Z,5.03
2018-06-24T20:40:03.207Z,5.07
2018-06-24T20:42:31.656Z,4.80
2018-06-24T20:45:00.456Z,4.93
2018-06-24T20:47:28.920Z,6.23
2018-06-24T20:49:57.340Z,6.27
2018-06-24T20:52:25.806Z,4.43
2018-06-24T20:54:54.254Z,3.47
2018-06-24T20:57:22.789Z,4.67
2018-06-24T20:59:51.283Z,4.10
2018-06-24T21:02:19.747Z,4.40
2018-06-24T21:04:48.168Z,5.37
2018-06-24T21:07:16.716Z,7.03
2018-06-24T21:09:45.228Z,7.20
2018-06-24T21:12:13.982Z,4.53
2018-06-24T21:14:42.494Z,5.40
2018-06-24T21:17:10.929Z,6.50
2018-06-24T21:19:39.432Z,6.13
2018-06-24T21:22:07.899Z,4.03
2018-06-24T21:24:38.554Z,6.20
2018-06-24T21:27:08.483Z,6.20
2018-06-24T21:29:37.656Z,7.00
2018-06-24T21:32:06.161Z,5.73
2018-06-24T21:34:34.733Z,4.40
2018-06-24T21:37:03.726Z,5.53
2018-06-24T21:39:32.186Z,5.23
2018-06-24T21:42:00.699Z,4.03
2018-06-24T21:44:29.211Z,6.37
2018-06-24T21:46:58.045Z,6.03
2018-06-24T21:49:26.660Z,5.83
2018-06-24T21:51:55.393Z,6.23
2018-06-24T21:54:23.912Z,6.70
2018-06-24T21:56:52.508Z,5.60
2018-06-24T21:59:21.181Z,5.40
2018-06-24T22:04:36.807Z,4.83
2018-06-24T22:07:05.331Z,7.87
2018-06-24T22:09:34.180Z,5.37
2018-06-24T22:12:02.677Z,4.03
2018-06-24T22:14:31.161Z,4.30
2018-06-24T22:17:00.122Z,4.87
2018-06-24T22:19:28.869Z,7.30
2018-06-24T22:21:57.769Z,5.80
2018-06-24T22:24:26.557Z,9.20
2018-06-24T22:26:55.957Z,5.07
2018-06-24T22:29:25.246Z,6.33
2018-06-24T22:31:53.815Z,7.27
2018-06-24T22:34:22.262Z,4.37
2018-06-24T22:36:50.746Z,4.50
2018-06-24T22:39:19.177Z,4.43
2018-06-24T22:41:47.633Z,4.60
2018-06-24T22:44:16.081Z,6.80
2018-06-24T22:46:44.561Z,4.63
2018-06-24T22:49:12.989Z,7.30
2018-06-24T22:51:41.410Z,3.43
2018-06-24T22:54:09.821Z,4.40
2018-06-24T22:56:38.264Z,4.77
2018-06-24T22:59:17.762Z,8.13
2018-06-24T23:01:46.220Z,5.13
2018-06-24T23:04:14.655Z,6.43
2018-06-24T23:06:43.198Z,4.47
2018-06-24T23:09:11.628Z,5.23
2018-06-24T23:11:40.069Z,5.60
2018-06-24T23:14:08.498Z,4.23
2018-06-24T23:16:36.948Z,4.13
2018-06-24T23:19:05.443Z,4.87
2018-06-24T23:21:33.892Z,5.53
2018-06-24T23:24:02.333Z,3.60
2018-06-24T23:26:30.761Z,3.70
2018-06-24T23:28:59.440Z,4.87
2018-06-24T23:31:28.205Z,5.23
2018-06-24T23:33:56.620Z,4.27
2018-06-24T23:36:25.039Z,4.30
2018-06-24T23:38:53.444Z,6.00
2018-06-24T23:41:21.883Z,6.70
2018-06-24T23:43:50.358Z,4.87
2018-06-24T23:46:18.828Z,4.67
2018-06-24T23:48:47.234Z,6.60
2018-06-24T23:51:15.865Z,9.20
2018-06-24T23:53:44.291Z,4.63
2018-06-24T23:56:12.730Z,10.57
2018-06-24T23:58:41.181Z,6.60
